CYJT

Stephenville

Airport
ICAO code
CYJT
IATA Code
YJT
Summary
ICAO Region
NAM
ICAO Territory
Location

Stephenville, Newfoundland,

Serving
Stephenville
Elevation
80 ft
Coordinates
48° 32' 43" N , 58° 32' 59" W
KCC
Metar
CYJT 210431Z 16012G17KT 8SM -RA FEW007 BKN016 OVC021 03/01 A2980 RMK SF1SC6SC1 SLP095

Description

International airport serving western Newfoundland.

Climatology

Humid Continental climate (Köppen climate classification Dfb) - Variable weather patterns and a large seasonal temperature variance. Summers are often warm and humid with frequent thunderstorms and winters can be very cold with frequent snowfall and persistent snow cover.

The separate article climate Newfoundland contains more detail on the climate of Newfoundland and associated weather phenomena.

Runways

Designator Length Width Surface Rops
2/20 1189 46 PEM Yes/Yes
9/27 3048 61 ASP Yes/Yes

Airport map

Aerial View

SKYbrary Partners:

Safety knowledge contributed by: